Time;durP1;ratioP1;P1;durP2;ratioP2;P2;SDS_P1;SDS_P2;PMS_P1;PMS_P2;Temp;Humidity;BMP_temperature;BMP_pressure;BME280_temperature;BME280_humidity;BME280_pressure;Samples;Min_cycle;Max_cycle;Signal;HPM_P1;HPM_P2
2022/01/11 00:00:07;;;;;;;90.87;50.53;;;0.10;99.90;;;;;;5077725;28;20465;-70
2022/01/11 00:02:38;;;;;;;97.00;53.27;;;0.00;99.90;;;;;;5077358;28;20779;-70
2022/01/11 00:05:07;;;;;;;106.37;52.47;;;0.10;99.90;;;;;;5077774;28;20447;-72
2022/01/11 00:07:35;;;;;;;95.07;53.87;;;0.00;99.90;;;;;;5077218;28;20938;-72
2022/01/11 00:10:05;;;;;;;101.93;54.00;;;0.00;99.90;;;;;;5077655;28;20450;-71
2022/01/11 00:12:33;;;;;;;101.77;54.13;;;0.00;99.90;;;;;;5077287;28;20789;-71
2022/01/11 00:15:00;;;;;;;96.10;53.73;;;-0.20;99.90;;;;;;5077298;28;20482;-71
2022/01/11 00:17:27;;;;;;;105.53;54.20;;;-0.10;99.90;;;;;;5078153;28;20454;-72
2022/01/11 00:19:54;;;;;;;98.23;53.67;;;-0.10;99.90;;;;;;5077202;28;20937;-71
2022/01/11 00:22:29;;;;;;;109.13;54.07;;;-0.10;99.90;;;;;;5076818;28;20481;-72
2022/01/11 00:24:55;;;;;;;97.97;52.33;;;-0.10;99.90;;;;;;5077345;28;20797;-71
2022/01/11 00:27:22;;;;;;;95.83;51.60;;;-0.10;99.90;;;;;;5077442;28;20497;-71
2022/01/11 00:29:52;;;;;;;100.67;53.97;;;-0.20;99.90;;;;;;5078413;28;20208;-71
2022/01/11 00:32:28;;;;;;;99.10;53.00;;;-0.20;99.90;;;;;;5080591;28;20453;-71
2022/01/11 00:34:56;;;;;;;99.07;53.40;;;-0.20;99.90;;;;;;5080174;28;20497;-72
2022/01/11 00:37:25;;;;;;;101.10;55.60;;;-0.30;99.90;;;;;;5078610;28;20515;-71
2022/01/11 00:39:54;;;;;;;104.50;54.27;;;-0.30;99.90;;;;;;5079561;28;20458;-72
2022/01/11 00:42:22;;;;;;;99.10;55.03;;;-0.30;99.90;;;;;;5078815;28;20465;-72
2022/01/11 00:44:51;;;;;;;99.20;55.87;;;-0.20;99.90;;;;;;5078538;28;20758;-72
2022/01/11 00:47:18;;;;;;;102.97;53.43;;;-0.20;99.90;;;;;;5077839;28;20494;-71
2022/01/11 00:49:45;;;;;;;101.60;53.87;;;-0.30;99.90;;;;;;5078832;28;20446;-72
2022/01/11 00:52:12;;;;;;;106.80;56.87;;;-0.20;99.90;;;;;;5077818;28;20935;-72
2022/01/11 00:54:41;;;;;;;109.30;53.10;;;-0.20;99.90;;;;;;5078846;28;20473;-72
2022/01/11 00:57:08;;;;;;;110.23;55.90;;;-0.20;99.90;;;;;;5078036;28;20466;-72
2022/01/11 00:59:35;;;;;;;123.97;60.00;;;-0.20;99.90;;;;;;5078950;28;20458;-72
2022/01/11 01:02:03;;;;;;;113.10;56.87;;;-0.30;99.90;;;;;;5077699;28;20464;-72
2022/01/11 01:04:31;;;;;;;109.10;58.63;;;-0.30;99.90;;;;;;5076530;28;20450;-70
2022/01/11 01:06:59;;;;;;;109.20;55.80;;;-0.30;99.90;;;;;;5077280;28;20466;-71
2022/01/11 01:09:33;;;;;;;106.37;54.30;;;-0.30;99.90;;;;;;5076663;28;20502;-72
2022/01/11 01:12:02;;;;;;;109.43;56.07;;;-0.30;99.90;;;;;;5076141;28;20456;-73
2022/01/11 01:14:30;;;;;;;106.90;57.17;;;-0.50;99.90;;;;;;5076387;28;20482;-72
2022/01/11 01:16:56;;;;;;;115.17;57.00;;;-0.50;99.90;;;;;;5076917;28;20477;-71
2022/01/11 01:19:26;;;;;;;112.23;56.57;;;-0.50;99.90;;;;;;5076658;28;20454;-73
2022/01/11 01:21:54;;;;;;;110.37;57.13;;;-0.40;99.90;;;;;;5077536;28;20457;-73
2022/01/11 01:24:21;;;;;;;118.33;55.03;;;-0.30;99.90;;;;;;5077260;28;20462;-72
2022/01/11 01:26:49;;;;;;;113.43;57.70;;;-0.20;99.90;;;;;;5077044;28;20458;-72
2022/01/11 01:29:18;;;;;;;112.60;55.17;;;-0.20;99.90;;;;;;5076083;28;20917;-72
2022/01/11 01:31:46;;;;;;;104.50;53.17;;;-0.10;99.90;;;;;;5076397;28;20693;-72
2022/01/11 01:34:18;;;;;;;106.83;54.70;;;0.00;99.90;;;;;;5075333;28;20482;-72
2022/01/11 01:36:46;;;;;;;99.77;51.60;;;-0.10;99.90;;;;;;5076770;28;20719;-72
2022/01/11 01:39:13;;;;;;;113.00;54.97;;;-0.20;99.90;;;;;;5076737;28;20462;-73
2022/01/11 01:41:42;;;;;;;109.37;53.27;;;-0.20;99.90;;;;;;5076609;28;20458;-72
2022/01/11 01:44:09;;;;;;;107.97;53.30;;;-0.30;99.90;;;;;;5076266;28;20925;-72
2022/01/11 01:46:37;;;;;;;106.83;53.13;;;-0.50;99.90;;;;;;5076059;28;20462;-72
2022/01/11 01:49:05;;;;;;;108.07;52.67;;;-0.50;99.90;;;;;;5076268;28;20504;-72
2022/01/11 01:51:32;;;;;;;108.13;50.67;;;-0.40;99.90;;;;;;5076480;28;20934;-72
2022/01/11 01:54:02;;;;;;;111.47;52.20;;;-0.30;99.90;;;;;;5076346;28;20953;-72
2022/01/11 01:56:29;;;;;;;104.53;52.20;;;-0.20;99.90;;;;;;5077872;28;20462;-72
2022/01/11 01:58:56;;;;;;;107.10;53.07;;;-0.20;99.90;;;;;;5076553;28;20454;-72
2022/01/11 02:01:23;;;;;;;104.03;52.90;;;-0.20;99.90;;;;;;5076664;28;20458;-72
2022/01/11 02:03:50;;;;;;;107.63;52.07;;;-0.30;99.90;;;;;;5076950;28;20518;-72
2022/01/11 02:06:18;;;;;;;104.73;51.97;;;-0.30;99.90;;;;;;5076852;28;20800;-72
2022/01/11 02:08:46;;;;;;;105.23;50.50;;;-0.40;99.90;;;;;;5075378;28;20458;-72
2022/01/11 02:11:16;;;;;;;109.70;50.57;;;-0.50;99.90;;;;;;5075537;28;20462;-72
2022/01/11 02:13:45;;;;;;;112.93;51.87;;;-0.50;99.90;;;;;;5075709;28;20786;-72
2022/01/11 02:16:12;;;;;;;100.30;49.27;;;-0.50;99.90;;;;;;5075701;28;20493;-72
2022/01/11 02:18:42;;;;;;;102.10;48.90;;;-0.50;99.90;;;;;;5075166;28;20461;-73
2022/01/11 02:21:10;;;;;;;114.20;49.03;;;-0.40;99.90;;;;;;5075438;28;20537;-72
2022/01/11 02:23:37;;;;;;;102.87;49.40;;;-0.30;99.90;;;;;;5074627;28;20992;-72
2022/01/11 02:26:06;;;;;;;96.70;49.43;;;-0.30;99.90;;;;;;5075144;28;20792;-72
2022/01/11 02:28:33;;;;;;;92.60;47.60;;;-0.30;99.90;;;;;;5074571;28;20469;-72
2022/01/11 02:31:07;;;;;;;103.00;47.70;;;-0.30;99.90;;;;;;5075286;28;20496;-72
2022/01/11 02:33:35;;;;;;;97.73;45.43;;;-0.20;99.90;;;;;;5074830;28;20447;-72
2022/01/11 02:36:04;;;;;;;109.37;45.60;;;-0.30;99.90;;;;;;5075044;28;20458;-72
2022/01/11 02:38:32;;;;;;;97.43;46.03;;;-0.30;99.90;;;;;;5074702;28;20457;-71
2022/01/11 02:40:59;;;;;;;93.67;44.23;;;-0.30;99.90;;;;;;5074855;28;20516;-72
2022/01/11 02:43:28;;;;;;;97.00;44.90;;;-0.40;99.90;;;;;;5074312;28;20465;-72
2022/01/11 02:45:55;;;;;;;99.90;47.50;;;-0.40;99.90;;;;;;5074474;28;20465;-72
2022/01/11 02:48:23;;;;;;;102.23;44.17;;;-0.30;99.90;;;;;;5074183;28;20486;-72
2022/01/11 02:50:51;;;;;;;102.23;46.97;;;-0.30;99.90;;;;;;5074648;28;20469;-72
2022/01/11 02:53:19;;;;;;;99.87;43.40;;;-0.30;99.90;;;;;;5074725;28;20519;-72
2022/01/11 02:55:49;;;;;;;101.77;43.00;;;-0.30;99.90;;;;;;5074843;28;20497;-73
2022/01/11 02:58:15;;;;;;;107.10;45.20;;;-0.30;99.90;;;;;;5075104;28;20462;-73
2022/01/11 03:00:43;;;;;;;113.57;45.70;;;-0.30;99.90;;;;;;5074705;28;20462;-72
2022/01/11 03:03:12;;;;;;;104.60;44.00;;;-0.30;99.90;;;;;;5074692;28;20816;-73
2022/01/11 03:05:45;;;;;;;102.43;45.63;;;-0.30;99.90;;;;;;5074508;28;20549;-71
2022/01/11 03:08:13;;;;;;;105.70;46.30;;;-0.20;99.90;;;;;;5074563;28;20453;-72
2022/01/11 03:10:40;;;;;;;93.97;42.40;;;-0.30;99.90;;;;;;5075051;28;20935;-72
2022/01/11 03:13:10;;;;;;;104.97;43.30;;;-0.30;99.90;;;;;;5074849;28;20458;-72
2022/01/11 03:15:37;;;;;;;94.13;40.03;;;-0.30;99.90;;;;;;5074406;28;20961;-72
2022/01/11 03:18:05;;;;;;;95.60;41.07;;;-0.30;99.90;;;;;;5074626;28;20766;-72
2022/01/11 03:20:33;;;;;;;98.90;40.27;;;-0.30;99.90;;;;;;5074371;28;20484;-72
2022/01/11 03:23:00;;;;;;;92.67;40.77;;;-0.30;99.90;;;;;;5074798;28;20462;-72
2022/01/11 03:25:27;;;;;;;82.70;37.87;;;-0.40;99.90;;;;;;5074782;28;20899;-72
2022/01/11 03:27:55;;;;;;;82.63;37.23;;;-0.50;99.90;;;;;;5074984;28;20807;-72
2022/01/11 03:30:24;;;;;;;78.90;36.83;;;-0.50;99.90;;;;;;5075150;28;20455;-74
2022/01/11 03:32:51;;;;;;;86.57;37.17;;;-0.50;99.90;;;;;;5075045;28;20454;-72
2022/01/11 03:35:18;;;;;;;82.90;36.70;;;-0.50;99.90;;;;;;5074126;28;20477;-72
2022/01/11 03:37:47;;;;;;;82.40;35.77;;;-0.40;99.90;;;;;;5074396;28;20462;-72
2022/01/11 03:40:16;;;;;;;87.83;36.20;;;-0.40;99.90;;;;;;5074180;28;20454;-72
2022/01/11 03:42:42;;;;;;;83.83;36.53;;;-0.40;99.90;;;;;;5073999;28;20762;-72
2022/01/11 03:45:11;;;;;;;95.07;38.70;;;-0.30;99.90;;;;;;5074152;28;20459;-72
2022/01/11 03:47:39;;;;;;;89.23;36.80;;;-0.30;99.90;;;;;;5073815;28;20489;-72
2022/01/11 03:50:10;;;;;;;81.97;38.17;;;-0.30;99.90;;;;;;5074135;28;20466;-72
2022/01/11 03:52:37;;;;;;;92.70;39.17;;;-0.40;99.90;;;;;;5074481;28;20449;-72
2022/01/11 03:55:11;;;;;;;87.10;36.10;;;-0.50;99.90;;;;;;5074193;28;20493;-71
2022/01/11 03:57:37;;;;;;;90.40;37.70;;;-0.60;99.90;;;;;;5075148;28;20442;-71
2022/01/11 04:00:08;;;;;;;84.07;37.70;;;-0.60;99.90;;;;;;5077928;28;20458;-72
2022/01/11 04:02:35;;;;;;;79.57;35.63;;;-0.60;99.90;;;;;;5077652;28;20454;-71
2022/01/11 04:05:04;;;;;;;73.37;35.73;;;-0.60;99.90;;;;;;5077478;28;20758;-71
2022/01/11 04:07:30;;;;;;;76.40;35.97;;;-0.40;99.90;;;;;;5077396;28;20583;-73
2022/01/11 04:09:58;;;;;;;76.63;35.40;;;-0.30;99.90;;;;;;5077219;28;20465;-71
2022/01/11 04:12:25;;;;;;;86.47;36.73;;;-0.20;99.90;;;;;;5077689;28;20465;-71
2022/01/11 04:14:52;;;;;;;80.33;35.17;;;-0.10;99.90;;;;;;5077099;28;20490;-72
2022/01/11 04:17:20;;;;;;;75.40;33.63;;;-0.10;99.90;;;;;;5077827;28;20458;-72
2022/01/11 04:19:48;;;;;;;88.40;35.57;;;-0.30;99.90;;;;;;5076801;28;20933;-72
2022/01/11 04:22:17;;;;;;;77.43;33.00;;;-0.40;99.90;;;;;;5077475;28;20462;-72
2022/01/11 04:24:43;;;;;;;83.07;36.47;;;-0.60;99.90;;;;;;5077154;28;20454;-72
2022/01/11 04:27:10;;;;;;;78.60;32.90;;;-0.60;99.90;;;;;;5077217;28;20473;-72
2022/01/11 04:29:37;;;;;;;78.00;33.87;;;-0.50;99.90;;;;;;5076670;28;20469;-77
2022/01/11 04:32:04;;;;;;;66.53;33.33;;;-0.40;99.90;;;;;;5077454;28;20488;-72
2022/01/11 04:34:31;;;;;;;74.30;32.80;;;-0.30;99.90;;;;;;5077157;28;20465;-72
2022/01/11 04:36:57;;;;;;;77.43;33.07;;;-0.20;99.90;;;;;;5077180;28;20600;-71
2022/01/11 04:39:26;;;;;;;79.90;33.90;;;-0.10;99.90;;;;;;5077297;28;20453;-72
2022/01/11 04:41:54;;;;;;;72.20;33.40;;;0.00;99.90;;;;;;5076927;28;20538;-72
2022/01/11 04:44:20;;;;;;;78.00;32.03;;;-0.10;99.90;;;;;;5076963;28;20498;-72
2022/01/11 04:46:47;;;;;;;69.23;32.57;;;-0.10;99.90;;;;;;5077282;28;20470;-72
2022/01/11 04:49:15;;;;;;;72.43;34.27;;;-0.10;99.90;;;;;;5076746;28;20446;-72
2022/01/11 04:51:42;;;;;;;69.90;30.17;;;0.00;99.90;;;;;;5076974;28;20501;-72
2022/01/11 04:54:08;;;;;;;67.77;31.27;;;0.00;99.90;;;;;;5076973;28;20461;-72
2022/01/11 04:56:37;;;;;;;67.47;30.03;;;0.00;99.90;;;;;;5076871;28;20478;-72
2022/01/11 04:59:04;;;;;;;69.30;29.73;;;-0.30;99.90;;;;;;5076739;28;20462;-73
2022/01/11 05:01:31;;;;;;;69.60;29.53;;;-0.50;99.90;;;;;;5076999;28;20511;-72
2022/01/11 05:03:58;;;;;;;69.40;30.47;;;-0.50;99.90;;;;;;5076451;28;20466;-71
2022/01/11 05:06:29;;;;;;;67.57;30.40;;;-0.50;99.90;;;;;;5076799;28;20450;-72
2022/01/11 05:08:56;;;;;;;72.27;29.83;;;-0.40;99.90;;;;;;5075339;28;20462;-71
2022/01/11 05:11:23;;;;;;;65.30;31.00;;;-0.30;99.90;;;;;;5076900;28;20496;-71
2022/01/11 05:13:51;;;;;;;75.30;31.20;;;-0.20;99.90;;;;;;5076261;28;20465;-71
2022/01/11 05:16:17;;;;;;;80.60;32.37;;;-0.20;99.90;;;;;;5075831;28;20949;-72
2022/01/11 05:18:44;;;;;;;69.20;28.47;;;-0.10;99.90;;;;;;5076112;28;20461;-72
2022/01/11 05:21:11;;;;;;;75.87;32.13;;;-0.20;99.90;;;;;;5076397;28;20564;-73
2022/01/11 05:23:38;;;;;;;62.93;30.13;;;-0.10;99.90;;;;;;5076195;28;20497;-72
2022/01/11 05:26:05;;;;;;;70.57;31.80;;;-0.10;99.90;;;;;;5076243;28;20454;-71
2022/01/11 05:28:33;;;;;;;81.50;33.57;;;-0.30;99.90;;;;;;5075887;28;20458;-72
2022/01/11 05:31:01;;;;;;;86.17;32.27;;;-0.50;99.90;;;;;;5076604;28;20486;-72
2022/01/11 05:33:28;;;;;;;77.50;30.17;;;-0.60;99.90;;;;;;5075758;28;21044;-73
2022/01/11 05:35:56;;;;;;;77.27;31.83;;;-0.70;99.90;;;;;;5075814;28;20521;-72
2022/01/11 05:38:23;;;;;;;75.60;31.40;;;-0.70;99.90;;;;;;5075853;28;20469;-73
2022/01/11 05:40:50;;;;;;;77.73;30.17;;;-0.90;99.90;;;;;;5076038;28;20478;-73
2022/01/11 05:43:17;;;;;;;72.90;30.00;;;-1.00;99.90;;;;;;5075590;28;20538;-73
2022/01/11 05:45:44;;;;;;;76.50;30.43;;;-1.00;99.90;;;;;;5075731;28;20786;-71
2022/01/11 05:48:12;;;;;;;71.30;33.27;;;-0.90;99.90;;;;;;5075319;28;20544;-74
2022/01/11 05:50:39;;;;;;;76.53;32.83;;;-0.70;99.90;;;;;;5075514;28;20458;-72
2022/01/11 05:53:06;;;;;;;77.47;32.50;;;-0.60;99.90;;;;;;5075559;28;20561;-72
2022/01/11 05:55:32;;;;;;;75.07;31.40;;;-0.50;99.90;;;;;;5075099;28;20977;-72
2022/01/11 05:57:59;;;;;;;78.30;33.57;;;-0.30;99.90;;;;;;5075263;28;20461;-72
2022/01/11 06:00:26;;;;;;;78.27;32.63;;;-0.30;99.90;;;;;;5075445;28;20458;-72
2022/01/11 06:02:54;;;;;;;68.67;30.77;;;-0.20;99.90;;;;;;5075427;28;20469;-72
2022/01/11 06:05:24;;;;;;;74.97;29.57;;;-0.40;99.90;;;;;;5075466;28;20466;-72
2022/01/11 06:07:51;;;;;;;70.10;32.00;;;-0.50;99.90;;;;;;5075290;28;20470;-72
2022/01/11 06:10:18;;;;;;;73.60;31.60;;;-0.70;99.90;;;;;;5075189;28;20458;-73
2022/01/11 06:12:45;;;;;;;70.57;29.13;;;-0.80;99.90;;;;;;5075328;28;20454;-71
2022/01/11 06:15:12;;;;;;;74.27;31.50;;;-0.80;99.90;;;;;;5074913;28;20594;-72
2022/01/11 06:17:39;;;;;;;77.77;35.53;;;-0.80;99.90;;;;;;5075164;28;20823;-72
2022/01/11 06:20:09;;;;;;;72.87;30.30;;;-0.70;99.90;;;;;;5074402;28;20923;-72
2022/01/11 06:22:38;;;;;;;69.97;30.80;;;-0.70;99.90;;;;;;5075138;28;20438;-72
2022/01/11 06:25:06;;;;;;;75.03;30.50;;;-0.70;99.90;;;;;;5074956;28;20458;-72
2022/01/11 06:27:33;;;;;;;65.37;31.57;;;-0.70;99.90;;;;;;5075012;28;20915;-73
2022/01/11 06:30:00;;;;;;;67.57;29.33;;;-0.60;99.90;;;;;;5075070;28;20450;-71
2022/01/11 06:32:29;;;;;;;73.57;30.97;;;-0.60;99.90;;;;;;5076070;28;20648;-73
2022/01/11 06:34:56;;;;;;;65.57;30.83;;;-0.60;99.90;;;;;;5074946;28;20457;-71
2022/01/11 06:37:24;;;;;;;72.33;30.30;;;-0.60;99.90;;;;;;5075043;28;20459;-72
2022/01/11 06:39:52;;;;;;;77.07;30.00;;;-0.50;99.90;;;;;;5075435;28;20465;-72
2022/01/11 06:42:20;;;;;;;80.10;30.20;;;-0.40;99.90;;;;;;5075049;28;20537;-73
2022/01/11 06:44:47;;;;;;;75.30;32.27;;;-0.40;99.90;;;;;;5074878;28;20480;-72
2022/01/11 06:47:14;;;;;;;68.77;29.97;;;-0.30;99.90;;;;;;5075141;28;20493;-72
2022/01/11 06:49:40;;;;;;;69.83;32.77;;;-0.20;99.90;;;;;;5076388;28;20442;-72
2022/01/11 06:52:07;;;;;;;74.47;32.57;;;-0.10;99.90;;;;;;5077259;28;20454;-72
2022/01/11 06:54:34;;;;;;;75.57;30.97;;;-0.10;99.90;;;;;;5076261;28;20442;-72
2022/01/11 06:57:02;;;;;;;70.00;31.60;;;0.00;99.90;;;;;;5075233;28;20935;-74
2022/01/11 06:59:32;;;;;;;70.67;31.10;;;-0.10;99.90;;;;;;5074881;28;20794;-73
2022/01/11 07:01:59;;;;;;;72.33;31.07;;;-0.10;99.90;;;;;;5075514;28;20758;-73
2022/01/11 07:04:26;;;;;;;73.10;31.50;;;-0.10;99.90;;;;;;5074609;28;20784;-73
2022/01/11 07:06:53;;;;;;;73.77;31.50;;;-0.20;99.90;;;;;;5074734;28;20807;-73
2022/01/11 07:09:20;;;;;;;71.70;30.27;;;-0.20;99.90;;;;;;5075459;28;20501;-73
2022/01/11 07:11:47;;;;;;;71.53;30.13;;;-0.20;99.90;;;;;;5074211;28;20546;-72
2022/01/11 07:14:15;;;;;;;64.90;27.80;;;-0.10;99.90;;;;;;5074154;28;20830;-71
2022/01/11 07:16:43;;;;;;;75.40;31.17;;;-0.10;99.90;;;;;;5074809;28;20485;-72
2022/01/11 07:19:10;;;;;;;62.00;29.13;;;0.00;99.90;;;;;;5073995;28;20509;-72
2022/01/11 07:21:38;;;;;;;63.63;26.70;;;-0.10;99.90;;;;;;5074716;28;20462;-72
2022/01/11 07:24:05;;;;;;;64.20;27.87;;;-0.20;99.90;;;;;;5074497;28;20945;-73
2022/01/11 07:26:33;;;;;;;63.97;28.50;;;-0.30;99.90;;;;;;5074851;28;20458;-73
2022/01/11 07:29:05;;;;;;;61.97;27.83;;;-0.50;99.90;;;;;;5074917;28;20565;-73
2022/01/11 07:31:36;;;;;;;67.50;34.07;;;-0.80;99.90;;;;;;5074800;28;20439;-72
2022/01/11 07:34:03;;;;;;;62.93;29.90;;;-0.70;99.90;;;;;;5078152;28;20442;-73
2022/01/11 07:36:30;;;;;;;58.30;27.53;;;-0.60;99.90;;;;;;5078729;28;20493;-73
2022/01/11 07:38:57;;;;;;;59.30;26.47;;;-0.50;99.90;;;;;;5077569;28;20460;-73
2022/01/11 07:41:23;;;;;;;62.23;28.40;;;-0.40;99.90;;;;;;5077736;28;20843;-71
2022/01/11 07:43:52;;;;;;;59.13;26.30;;;-0.40;99.90;;;;;;5077716;28;20465;-73
2022/01/11 07:46:19;;;;;;;55.70;26.37;;;-0.40;99.90;;;;;;5077637;28;20519;-72
2022/01/11 07:48:47;;;;;;;54.77;26.27;;;-0.60;99.90;;;;;;5077398;28;20500;-73
2022/01/11 07:51:14;;;;;;;60.10;27.90;;;-0.80;99.90;;;;;;5078092;28;20464;-71
2022/01/11 07:53:40;;;;;;;61.97;28.00;;;-1.00;99.90;;;;;;5077635;28;20563;-73
2022/01/11 07:56:07;;;;;;;57.00;25.93;;;-0.90;99.90;;;;;;5078194;28;20516;-72
2022/01/11 07:58:36;;;;;;;59.90;25.13;;;-0.90;99.90;;;;;;5078440;28;20458;-72
2022/01/11 08:01:03;;;;;;;51.90;24.30;;;-0.90;99.90;;;;;;5078134;28;20952;-73
2022/01/11 08:03:30;;;;;;;51.97;25.17;;;-0.90;99.90;;;;;;5078364;28;20458;-72
2022/01/11 08:05:58;;;;;;;56.80;24.57;;;-0.90;99.90;;;;;;5078089;28;20476;-72
2022/01/11 08:08:25;;;;;;;54.53;24.93;;;-0.70;99.90;;;;;;5079207;28;20477;-72
2022/01/11 08:10:51;;;;;;;53.60;23.77;;;-0.50;99.90;;;;;;5080291;28;20842;-72
2022/01/11 08:13:18;;;;;;;62.53;24.40;;;-0.40;99.90;;;;;;5082617;28;20492;-73
2022/01/11 08:15:45;;;;;;;55.37;26.27;;;-0.30;99.90;;;;;;5086294;28;20529;-72
2022/01/11 08:18:11;;;;;;;46.50;24.93;;;-0.20;99.90;;;;;;5087752;28;20462;-73
2022/01/11 08:20:38;;;;;;;55.77;24.47;;;0.00;99.90;;;;;;5085101;28;20879;-72
2022/01/11 08:23:06;;;;;;;40.37;22.20;;;0.10;99.90;;;;;;5078404;28;20450;-72
2022/01/11 08:25:33;;;;;;;50.40;22.87;;;0.20;99.90;;;;;;5077708;28;20545;-73
2022/01/11 08:28:01;;;;;;;48.50;24.03;;;0.20;99.90;;;;;;5077457;28;20462;-72
2022/01/11 08:30:30;;;;;;;47.07;22.87;;;0.30;99.90;;;;;;5077354;28;20477;-72
2022/01/11 08:32:57;;;;;;;50.40;23.60;;;0.30;99.90;;;;;;5077953;28;20458;-72
2022/01/11 08:35:25;;;;;;;53.50;25.03;;;0.40;99.90;;;;;;5077296;28;20442;-72
2022/01/11 08:37:51;;;;;;;42.50;21.80;;;0.40;99.90;;;;;;5077294;28;20961;-73
2022/01/11 08:40:19;;;;;;;44.73;22.70;;;0.40;99.90;;;;;;5076744;28;20473;-72
2022/01/11 08:42:48;;;;;;;46.70;23.90;;;0.40;99.90;;;;;;5076712;28;20480;-72
2022/01/11 08:45:14;;;;;;;51.30;23.80;;;0.40;99.90;;;;;;5076465;28;20531;-72
2022/01/11 08:47:42;;;;;;;47.40;23.67;;;0.20;99.90;;;;;;5076121;28;20486;-72
2022/01/11 08:50:12;;;;;;;50.30;25.33;;;0.00;99.90;;;;;;5076549;28;20488;-72
2022/01/11 08:52:39;;;;;;;48.90;23.70;;;0.00;99.90;;;;;;5077241;28;20940;-71
2022/01/11 08:55:08;;;;;;;56.63;24.37;;;-0.30;99.90;;;;;;5076358;28;20465;-72
2022/01/11 08:57:36;;;;;;;46.87;23.67;;;-0.30;99.90;;;;;;5076653;28;20930;-73
2022/01/11 09:00:10;;;;;;;37.57;21.53;;;-0.30;99.90;;;;;;5076369;28;20481;-73
2022/01/11 09:02:37;;;;;;;43.97;22.30;;;-0.20;99.90;;;;;;5076139;28;20522;-72
2022/01/11 09:05:04;;;;;;;48.83;24.53;;;-0.30;99.90;;;;;;5076701;28;20541;-71
2022/01/11 09:07:31;;;;;;;43.27;23.20;;;-0.40;99.90;;;;;;5076620;28;20458;-72
2022/01/11 09:09:58;;;;;;;60.90;24.40;;;-0.40;99.90;;;;;;5076188;28;20469;-72
2022/01/11 09:12:24;;;;;;;49.70;24.90;;;-0.50;99.90;;;;;;5075968;28;20469;-72
2022/01/11 09:14:52;;;;;;;48.60;25.93;;;-0.50;99.90;;;;;;5076640;28;20458;-72
2022/01/11 09:17:21;;;;;;;46.93;23.73;;;-0.60;99.90;;;;;;5076563;28;20603;-72
2022/01/11 09:19:47;;;;;;;55.37;24.40;;;-0.60;99.90;;;;;;5076184;28;20458;-73
2022/01/11 09:22:14;;;;;;;50.97;25.00;;;-0.50;99.90;;;;;;5076173;28;20462;-72
2022/01/11 09:24:41;;;;;;;52.93;25.53;;;-0.50;99.90;;;;;;5076269;28;20469;-72
2022/01/11 09:27:08;;;;;;;52.73;26.27;;;-0.50;99.90;;;;;;5076504;28;20488;-73
2022/01/11 09:29:37;;;;;;;51.40;25.93;;;-0.50;99.90;;;;;;5076129;28;20454;-73
2022/01/11 09:32:07;;;;;;;55.40;24.33;;;-0.50;99.90;;;;;;5075977;28;20496;-73
2022/01/11 09:34:37;;;;;;;52.83;25.77;;;-0.40;99.90;;;;;;5076044;28;20450;-73
2022/01/11 09:37:04;;;;;;;48.10;23.10;;;-0.20;99.90;;;;;;5076012;28;20489;-73
2022/01/11 09:39:31;;;;;;;48.93;23.80;;;-0.10;99.90;;;;;;5076139;28;20469;-73
2022/01/11 09:41:59;;;;;;;44.83;23.27;;;0.00;99.90;;;;;;5076032;28;20458;-74
2022/01/11 09:44:27;;;;;;;41.80;22.03;;;0.00;99.90;;;;;;5075901;28;20458;-73
2022/01/11 09:46:54;;;;;;;44.10;23.43;;;0.00;99.90;;;;;;5075825;28;20458;-74
2022/01/11 09:49:22;;;;;;;47.23;24.53;;;0.10;99.90;;;;;;5075371;28;20443;-73
2022/01/11 09:51:49;;;;;;;41.43;20.90;;;0.20;99.90;;;;;;5075988;28;20454;-73
2022/01/11 09:54:19;;;;;;;49.77;24.00;;;0.30;99.90;;;;;;5075451;28;20454;-73
2022/01/11 09:56:47;;;;;;;44.87;22.80;;;0.40;99.90;;;;;;5075330;28;20566;-74
2022/01/11 09:59:16;;;;;;;44.33;22.30;;;0.30;99.90;;;;;;5075191;28;20469;-73
2022/01/11 10:01:46;;;;;;;55.33;25.17;;;0.30;99.90;;;;;;5075780;28;20462;-74
2022/01/11 10:04:16;;;;;;;46.70;22.70;;;0.30;99.90;;;;;;5074815;28;20450;-73
2022/01/11 10:06:53;;;;;;;47.87;24.63;;;0.30;99.90;;;;;;5075650;28;20470;-73
2022/01/11 10:09:23;;;;;;;44.50;23.50;;;0.40;99.90;;;;;;5075462;28;20442;-72
2022/01/11 10:11:52;;;;;;;37.87;21.20;;;0.30;99.90;;;;;;5075649;28;20454;-73
2022/01/11 10:14:22;;;;;;;47.97;23.83;;;0.30;99.90;;;;;;5075255;28;20465;-74
2022/01/11 10:16:50;;;;;;;42.50;23.10;;;0.40;99.90;;;;;;5075539;28;20589;-74
2022/01/11 10:19:21;;;;;;;39.10;21.20;;;0.40;99.90;;;;;;5074970;28;20469;-73
2022/01/11 10:21:51;;;;;;;42.20;22.77;;;0.50;99.90;;;;;;5075083;28;20462;-73
2022/01/11 10:24:32;;;;;;;42.40;21.83;;;0.60;99.90;;;;;;5075464;28;20468;-73
2022/01/11 10:27:03;;;;;;;44.37;22.30;;;0.70;99.90;;;;;;5077915;28;20438;-74
2022/01/11 10:29:37;;;;;;;39.37;22.27;;;0.80;99.90;;;;;;5077131;28;20435;-74
2022/01/11 10:32:20;;;;;;;44.40;23.37;;;0.90;99.90;;;;;;5075936;28;20500;-73
2022/01/11 10:34:49;;;;;;;44.80;23.47;;;0.90;99.90;;;;;;5075361;28;20453;-73
2022/01/11 10:37:27;;;;;;;45.07;23.70;;;0.80;99.90;;;;;;5075455;28;20509;-73
2022/01/11 10:40:07;;;;;;;43.60;23.07;;;0.80;99.90;;;;;;5075838;28;20518;-73
2022/01/11 10:42:38;;;;;;;44.00;22.63;;;0.70;99.90;;;;;;5075426;28;20442;-74
2022/01/11 10:45:07;;;;;;;49.03;24.63;;;0.60;99.90;;;;;;5075114;28;20896;-73
2022/01/11 10:47:37;;;;;;;47.83;23.10;;;0.50;99.90;;;;;;5075354;28;20474;-72
2022/01/11 10:50:08;;;;;;;44.73;24.80;;;0.50;99.90;;;;;;5075249;28;20450;-74
2022/01/11 10:52:38;;;;;;;48.10;21.93;;;0.40;99.90;;;;;;5076019;28;20527;-73
2022/01/11 10:55:09;;;;;;;50.10;22.20;;;0.10;99.90;;;;;;5076545;28;20461;-74
2022/01/11 10:57:38;;;;;;;45.50;23.17;;;-0.10;99.90;;;;;;5078879;28;20474;-73
2022/01/11 11:00:27;;;;;;;47.03;23.50;;;-0.20;99.90;;;;;;5078116;28;20485;-73
2022/01/11 11:02:59;;;;;;;46.37;23.07;;;-0.10;99.90;;;;;;5077484;28;20778;-73
2022/01/11 11:05:30;;;;;;;40.10;21.73;;;-0.10;99.90;;;;;;5077130;28;20449;-72
2022/01/11 11:08:08;;;;;;;44.90;23.20;;;-0.10;99.90;;;;;;5083003;28;20456;-75
2022/01/11 11:10:41;;;;;;;47.30;23.30;;;-0.10;99.90;;;;;;5082179;28;20438;-74
2022/01/11 11:13:10;;;;;;;46.67;22.27;;;-0.10;99.90;;;;;;5080094;28;20549;-73
2022/01/11 11:15:38;;;;;;;42.10;21.63;;;0.00;99.90;;;;;;5079590;28;20454;-74
2022/01/11 11:18:07;;;;;;;39.17;22.10;;;0.10;99.90;;;;;;5079701;28;20488;-74
2022/01/11 11:20:37;;;;;;;40.20;24.57;;;0.30;99.90;;;;;;5079364;28;20462;-72
2022/01/11 11:23:06;;;;;;;41.23;22.40;;;0.30;99.90;;;;;;5078465;28;20526;-73
2022/01/11 11:25:33;;;;;;;41.13;22.47;;;0.30;99.90;;;;;;5078923;28;20756;-73
2022/01/11 11:28:00;;;;;;;39.30;20.40;;;0.40;99.90;;;;;;5078529;28;20866;-73
2022/01/11 11:30:27;;;;;;;41.70;22.80;;;0.50;99.90;;;;;;5078726;28;20465;-73
2022/01/11 11:32:55;;;;;;;35.57;20.33;;;0.50;99.90;;;;;;5078686;28;20454;-74
2022/01/11 11:35:22;;;;;;;37.60;20.27;;;0.50;99.90;;;;;;5079797;28;20454;-73
2022/01/11 11:37:55;;;;;;;41.13;20.13;;;0.50;99.90;;;;;;5079404;28;20666;-74
2022/01/11 11:40:25;;;;;;;35.97;19.93;;;0.60;99.90;;;;;;5082128;28;20503;-73
2022/01/11 11:42:54;;;;;;;38.60;20.67;;;0.80;99.90;;;;;;5080390;28;20887;-72
2022/01/11 11:45:24;;;;;;;38.83;20.83;;;0.90;99.90;;;;;;5078558;28;20490;-74
2022/01/11 11:48:05;;;;;;;40.30;20.83;;;1.00;99.90;;;;;;5077959;28;20474;-72
2022/01/11 11:50:31;;;;;;;36.07;18.93;;;1.00;99.90;;;;;;5078154;28;20453;-74
2022/01/11 11:52:58;;;;;;;35.27;20.20;;;1.10;99.90;;;;;;5077797;28;20458;-74
2022/01/11 11:55:29;;;;;;;41.77;20.20;;;1.10;99.90;;;;;;5077623;28;20924;-72
2022/01/11 11:57:58;;;;;;;35.67;19.13;;;0.90;99.90;;;;;;5077663;28;20536;-71
2022/01/11 12:00:28;;;;;;;37.73;20.80;;;0.90;99.90;;;;;;5078230;28;20453;-72
2022/01/11 12:02:56;;;;;;;39.10;20.97;;;1.10;99.90;;;;;;5077228;28;20465;-73
2022/01/11 12:05:36;;;;;;;39.77;21.13;;;1.30;99.90;;;;;;5077576;28;20453;-73
2022/01/11 12:08:30;;;;;;;41.67;21.67;;;1.40;99.90;;;;;;5077318;28;20446;-73
2022/01/11 12:11:02;;;;;;;43.20;21.33;;;1.20;99.90;;;;;;5077507;28;20442;-73
2022/01/11 12:13:41;;;;;;;44.90;21.93;;;1.40;99.90;;;;;;5077715;28;20434;-73
2022/01/11 12:16:41;;;;;;;35.53;21.33;;;1.90;99.90;;;;;;5077532;28;20454;-73
2022/01/11 12:19:27;;;;;;;34.70;20.40;;;2.30;99.90;;;;;;5076894;28;20449;-75
2022/01/11 12:22:20;;;;;;;38.60;21.80;;;2.40;99.90;;;;;;5076859;28;20473;-74
2022/01/11 12:24:50;;;;;;;36.23;20.30;;;2.60;99.90;;;;;;5077486;28;20552;-75
2022/01/11 12:27:22;;;;;;;35.90;20.57;;;2.90;99.90;;;;;;5077425;28;20450;-74
2022/01/11 12:29:57;;;;;;;37.27;20.60;;;3.50;99.90;;;;;;5078849;28;20439;-76
2022/01/11 12:32:26;;;;;;;37.43;21.83;;;4.30;99.90;;;;;;5077230;28;20496;-74
2022/01/11 12:35:08;;;;;;;45.63;23.13;;;4.40;99.90;;;;;;5077388;28;20446;-75